createdAt,value
2022-09-09T00:02:21.018Z,100085.94
2022-09-09T00:05:05.070Z,100068.88
2022-09-09T00:07:43.963Z,100063.88
2022-09-09T00:10:43.071Z,100064.63
2022-09-09T00:13:34.430Z,100070.66
2022-09-09T00:16:23.456Z,100072.78
2022-09-09T00:18:56.025Z,100065.06
2022-09-09T00:21:34.176Z,100083.25
2022-09-09T00:24:11.700Z,100094.03
2022-09-09T00:29:46.299Z,100072.31
2022-09-09T00:32:19.622Z,100074.53
2022-09-09T00:34:55.492Z,100084.47
2022-09-09T00:37:26.549Z,100077.22
2022-09-09T00:39:58.500Z,100082.59
2022-09-09T00:42:31.195Z,100081.34
2022-09-09T00:45:38.187Z,100079.47
2022-09-09T00:48:12.395Z,100081.59
2022-09-09T00:50:39.485Z,100100.63
2022-09-09T00:53:21.333Z,100084.94
2022-09-09T00:55:48.998Z,100090.81
2022-09-09T00:58:15.619Z,100089.78
2022-09-09T01:00:44.773Z,100091.63
2022-09-09T01:03:23.065Z,100084.13
2022-09-09T01:05:50.892Z,100078.91
2022-09-09T01:08:29.189Z,100080.69
2022-09-09T01:10:58.845Z,100074.00
2022-09-09T01:13:34.837Z,100079.94
2022-09-09T01:16:12.575Z,100085.22
2022-09-09T01:18:51.896Z,100076.03
2022-09-09T01:21:34.510Z,100083.09
2022-09-09T01:24:29.024Z,100085.94
2022-09-09T01:27:20.830Z,100086.81
2022-09-09T01:29:47.932Z,100082.44
2022-09-09T01:32:48.208Z,100089.22
2022-09-09T01:35:27.859Z,100093.19
2022-09-09T01:37:55.015Z,100101.66
2022-09-09T01:40:22.097Z,100089.22
2022-09-09T01:42:49.954Z,100098.78
2022-09-09T01:45:16.855Z,100099.31
2022-09-09T01:47:45.806Z,100089.94
2022-09-09T01:50:31.087Z,100091.91
2022-09-09T01:53:00.844Z,100089.84
2022-09-09T01:55:40.030Z,100088.56
2022-09-09T01:58:33.602Z,100083.91
2022-09-09T02:01:09.856Z,100096.19
2022-09-09T02:03:37.288Z,100097.09
2022-09-09T02:06:12.304Z,100094.97
2022-09-09T02:08:53.204Z,100086.97
2022-09-09T02:11:23.959Z,100085.88
2022-09-09T02:14:18.884Z,100087.16
2022-09-09T02:17:02.836Z,100084.69
2022-09-09T02:19:49.931Z,100093.50
2022-09-09T02:22:40.561Z,100093.47
2022-09-09T02:25:11.477Z,100105.63
2022-09-09T02:27:38.757Z,100097.56
2022-09-09T02:30:06.104Z,100112.22
2022-09-09T02:32:42.286Z,100110.72
2022-09-09T02:35:19.766Z,100135.31
2022-09-09T02:37:51.058Z,100115.75
2022-09-09T02:40:18.578Z,100115.38
2022-09-09T02:42:50.291Z,100124.28
2022-09-09T02:45:22.583Z,100120.75
2022-09-09T02:48:39.390Z,100122.72
2022-09-09T02:51:14.593Z,100116.31
2022-09-09T02:53:56.004Z,100123.38
2022-09-09T02:56:30.409Z,100127.09
2022-09-09T02:58:58.076Z,100116.50
2022-09-09T03:01:26.549Z,100117.97
2022-09-09T03:03:53.425Z,100130.13
2022-09-09T03:06:20.059Z,100127.81
2022-09-09T03:08:53.481Z,100124.75
2022-09-09T03:11:24.830Z,100116.31
2022-09-09T03:13:51.516Z,100126.44
2022-09-09T03:16:20.559Z,100119.38
2022-09-09T03:18:50.787Z,100119.25
2022-09-09T03:21:17.625Z,100120.47
2022-09-09T03:23:45.969Z,100144.31
2022-09-09T03:26:13.183Z,100136.72
2022-09-09T03:28:44.368Z,100143.88
2022-09-09T03:31:11.839Z,100142.56
2022-09-09T03:33:42.314Z,100137.28
2022-09-09T03:36:12.409Z,100143.88
2022-09-09T03:38:39.447Z,100145.69
2022-09-09T03:41:07.207Z,100152.47
2022-09-09T03:43:35.005Z,100144.22
2022-09-09T03:46:01.866Z,100147.06
2022-09-09T03:48:30.194Z,100147.44
2022-09-09T03:50:58.902Z,100152.13
2022-09-09T03:53:26.402Z,100141.59
2022-09-09T03:56:00.779Z,100154.31
2022-09-09T03:58:28.996Z,100150.22
2022-09-09T04:01:09.713Z,100146.97
2022-09-09T04:03:37.829Z,100146.88
2022-09-09T04:06:07.389Z,100157.44
2022-09-09T04:08:35.326Z,100151.25
2022-09-09T04:11:07.148Z,100155.97
2022-09-09T04:13:36.147Z,100153.56
2022-09-09T04:16:04.764Z,100144.81
2022-09-09T04:18:32.728Z,100148.19
2022-09-09T04:21:00.472Z,100146.41
2022-09-09T04:23:30.502Z,100148.91
2022-09-09T04:26:00.588Z,100139.16
2022-09-09T04:28:33.714Z,100145.47
2022-09-09T04:31:13.625Z,100147.25
2022-09-09T04:33:41.202Z,100162.06
2022-09-09T04:36:09.585Z,100142.13
2022-09-09T04:38:37.148Z,100142.69
2022-09-09T04:41:05.047Z,100149.72
2022-09-09T04:43:33.155Z,100145.78
2022-09-09T04:46:02.531Z,100138.25
2022-09-09T04:48:32.166Z,100140.75
2022-09-09T04:51:06.305Z,100146.16
2022-09-09T04:53:35.324Z,100143.34
2022-09-09T04:56:07.950Z,100146.31
2022-09-09T04:58:40.687Z,100142.44
2022-09-09T05:01:12.251Z,100150.94
2022-09-09T05:03:40.876Z,100144.09
2022-09-09T05:06:16.015Z,100151.91
2022-09-09T05:08:44.157Z,100155.31
2022-09-09T05:11:19.686Z,100147.84
2022-09-09T05:13:47.915Z,100157.06
2022-09-09T05:16:15.864Z,100160.41
2022-09-09T05:18:47.010Z,100156.66
2022-09-09T05:21:15.961Z,100156.72
2022-09-09T05:23:42.643Z,100158.03
2022-09-09T05:26:17.448Z,100165.91
2022-09-09T05:28:47.963Z,100159.69
2022-09-09T05:31:17.220Z,100161.47
2022-09-09T05:33:47.589Z,100171.38
2022-09-09T05:36:21.493Z,100176.34
2022-09-09T05:38:51.319Z,100173.97
2022-09-09T05:41:20.987Z,100176.88
2022-09-09T05:43:49.872Z,100189.31
2022-09-09T05:46:22.519Z,100177.34
2022-09-09T05:48:52.991Z,100182.72
2022-09-09T05:51:25.137Z,100189.47
2022-09-09T05:53:52.475Z,100182.72
2022-09-09T05:56:26.440Z,100182.31
2022-09-09T05:58:57.572Z,100186.38
2022-09-09T06:01:31.402Z,100180.44
2022-09-09T06:03:59.964Z,100190.56
2022-09-09T06:06:38.005Z,100185.34
2022-09-09T06:09:11.442Z,100198.22
2022-09-09T06:11:41.205Z,100188.03
2022-09-09T06:14:09.581Z,100196.53
2022-09-09T06:16:38.906Z,100198.81
2022-09-09T06:19:13.231Z,100203.63
2022-09-09T06:21:41.175Z,100203.13
2022-09-09T06:24:09.435Z,100204.13
2022-09-09T06:26:41.602Z,100214.53
2022-09-09T06:29:10.947Z,100216.09
2022-09-09T06:31:38.512Z,100221.03
2022-09-09T06:34:21.818Z,100219.25
2022-09-09T06:36:53.062Z,100222.97
2022-09-09T06:39:19.798Z,100228.63
2022-09-09T06:41:47.496Z,100235.81
2022-09-09T06:44:35.186Z,100239.97
2022-09-09T06:47:03.294Z,100235.81
2022-09-09T06:49:30.176Z,100248.13
2022-09-09T06:51:57.539Z,100247.88
2022-09-09T06:54:26.394Z,100251.06
2022-09-09T06:56:54.498Z,100248.91
2022-09-09T06:59:23.889Z,100249.69
2022-09-09T07:01:56.324Z,100253.88
2022-09-09T07:04:24.826Z,100262.22
2022-09-09T07:07:00.902Z,100265.03
2022-09-09T07:09:28.495Z,100280.03
2022-09-09T07:11:55.237Z,100275.09
2022-09-09T07:14:23.808Z,100274.88
2022-09-09T07:17:01.259Z,100288.44
2022-09-09T07:19:33.068Z,100295.38
2022-09-09T07:22:01.168Z,100292.47
2022-09-09T07:24:31.488Z,100289.28
2022-09-09T07:26:58.720Z,100295.44
2022-09-09T07:29:25.433Z,100301.91
2022-09-09T07:31:52.743Z,100309.63
2022-09-09T07:34:24.742Z,100318.09
2022-09-09T07:36:52.099Z,100303.38
2022-09-09T07:39:19.971Z,100316.22
2022-09-09T07:41:50.765Z,100314.66
2022-09-09T07:44:22.688Z,100318.00
2022-09-09T07:46:54.351Z,100316.50
2022-09-09T07:49:32.162Z,100335.22
2022-09-09T07:52:01.111Z,100333.75
2022-09-09T07:54:28.798Z,100332.41
2022-09-09T07:56:55.878Z,100340.22
2022-09-09T07:59:26.176Z,100343.84
2022-09-09T08:01:55.737Z,100344.78
2022-09-09T08:04:27.101Z,100347.75
2022-09-09T08:06:58.206Z,100354.03
2022-09-09T08:09:29.776Z,100356.31
2022-09-09T08:12:07.627Z,100352.53
2022-09-09T08:14:34.737Z,100365.66
2022-09-09T08:17:02.257Z,100358.31
2022-09-09T08:19:31.076Z,100358.69
2022-09-09T08:22:00.239Z,100367.94
2022-09-09T08:24:27.688Z,100369.31
2022-09-09T08:26:54.755Z,100373.78
2022-09-09T08:29:24.244Z,100378.75
2022-09-09T08:31:58.320Z,100371.63
2022-09-09T08:34:27.958Z,100380.28
2022-09-09T08:36:56.649Z,100375.81
2022-09-09T08:39:29.801Z,100376.91
2022-09-09T08:42:10.319Z,100380.09
2022-09-09T08:44:58.812Z,100380.44
2022-09-09T08:47:34.051Z,100393.47
2022-09-09T08:50:25.591Z,100388.81
2022-09-09T08:53:10.214Z,100392.66
2022-09-09T08:55:50.885Z,100390.13
2022-09-09T08:58:26.581Z,100400.66
2022-09-09T09:01:09.744Z,100403.25
2022-09-09T09:04:14.678Z,100417.78
2022-09-09T09:06:55.650Z,100416.03
2022-09-09T09:09:44.488Z,100418.81
2022-09-09T09:12:21.514Z,100422.91
2022-09-09T09:14:50.040Z,100433.44
2022-09-09T09:17:24.484Z,100423.50
2022-09-09T09:19:51.621Z,100430.66
2022-09-09T09:22:37.359Z,100438.94
2022-09-09T09:25:18.841Z,100441.72
2022-09-09T09:28:06.653Z,100446.47
2022-09-09T09:30:43.624Z,100442.84
2022-09-09T09:33:25.727Z,100447.22
2022-09-09T09:35:53.044Z,100452.69
2022-09-09T09:41:13.790Z,100455.97
2022-09-09T09:43:43.708Z,100454.31
2022-09-09T09:46:25.061Z,100461.44
2022-09-09T09:49:01.197Z,100462.94
2022-09-09T09:51:31.114Z,100462.47
2022-09-09T09:54:28.734Z,100474.28
2022-09-09T09:57:10.369Z,100471.34
2022-09-09T09:59:41.000Z,100481.13
2022-09-09T10:02:26.602Z,100476.81
2022-09-09T10:05:27.604Z,100488.28
2022-09-09T10:08:13.728Z,100481.38
2022-09-09T10:11:03.191Z,100487.78
2022-09-09T10:13:41.425Z,100493.84
2022-09-09T10:16:22.502Z,100487.06
2022-09-09T10:19:04.002Z,100480.66
2022-09-09T10:21:45.132Z,100480.16
2022-09-09T10:24:24.265Z,100494.31
2022-09-09T10:27:06.463Z,100494.69
2022-09-09T10:29:36.088Z,100484.91
2022-09-09T10:32:10.237Z,100492.09
2022-09-09T10:34:40.447Z,100494.28
2022-09-09T10:37:26.706Z,100488.72
2022-09-09T10:40:06.159Z,100493.81
2022-09-09T10:42:33.701Z,100497.38
2022-09-09T10:45:18.092Z,100500.44
2022-09-09T10:47:58.314Z,100491.88
2022-09-09T10:50:38.005Z,100493.63
2022-09-09T10:53:28.390Z,100503.13
2022-09-09T10:56:03.598Z,100501.19
2022-09-09T10:58:42.396Z,100513.69
2022-09-09T11:01:32.411Z,100502.91
2022-09-09T11:04:06.508Z,100509.25
2022-09-09T11:06:42.070Z,100503.47
2022-09-09T11:09:18.213Z,100501.34
2022-09-09T11:11:59.260Z,100511.78
2022-09-09T11:14:41.931Z,100537.38
2022-09-09T11:17:36.873Z,100517.81
2022-09-09T11:20:06.714Z,100514.59
2022-09-09T11:22:49.234Z,100508.28
2022-09-09T11:25:21.722Z,100512.44
2022-09-09T11:28:18.690Z,100524.84
2022-09-09T11:30:56.491Z,100529.28
2022-09-09T11:33:50.240Z,100518.63
2022-09-09T11:36:28.761Z,100518.16
2022-09-09T11:39:07.947Z,100523.38
2022-09-09T11:41:38.575Z,100512.50
2022-09-09T11:44:21.440Z,100536.22
2022-09-09T11:46:52.168Z,100528.94
2022-09-09T11:49:32.440Z,100537.97
2022-09-09T11:51:59.224Z,100528.88
2022-09-09T11:54:34.545Z,100527.00
2022-09-09T11:57:03.383Z,100529.53
2022-09-09T11:59:34.309Z,100541.22
2022-09-09T12:02:15.888Z,100541.44
2022-09-09T12:05:01.896Z,100539.88
2022-09-09T12:07:43.492Z,100532.34
2022-09-09T12:10:33.606Z,100538.09
2022-09-09T12:13:17.750Z,100550.72
2022-09-09T12:15:50.645Z,100534.25
2022-09-09T12:18:23.706Z,100541.16
2022-09-09T12:21:03.629Z,100529.28
2022-09-09T12:23:49.254Z,100545.19
2022-09-09T12:26:28.158Z,100543.69
2022-09-09T12:29:21.905Z,100547.06
2022-09-09T12:31:58.038Z,100548.44
2022-09-09T12:34:44.983Z,100547.31
2022-09-09T12:37:20.268Z,100541.91
2022-09-09T12:39:54.114Z,100553.38
2022-09-09T12:42:22.408Z,100546.13
2022-09-09T12:44:56.476Z,100556.63
2022-09-09T12:47:31.487Z,100550.88
2022-09-09T12:49:58.500Z,100552.38
2022-09-09T12:52:31.061Z,100548.84
2022-09-09T12:55:01.377Z,100547.22
2022-09-09T12:57:34.818Z,100557.22
2022-09-09T13:00:15.340Z,100552.38
2022-09-09T13:02:52.440Z,100553.09
2022-09-09T13:05:28.792Z,100555.41
2022-09-09T13:08:12.812Z,100556.44
2022-09-09T13:11:00.238Z,100560.81
2022-09-09T13:13:37.765Z,100565.41
2022-09-09T13:16:08.213Z,100557.78
2022-09-09T13:18:39.487Z,100558.97
2022-09-09T13:21:06.494Z,100565.34
2022-09-09T13:23:36.355Z,100561.06
2022-09-09T13:26:07.232Z,100562.66
2022-09-09T13:28:36.050Z,100571.03
2022-09-09T13:31:06.043Z,100568.88
2022-09-09T13:33:41.039Z,100567.78
2022-09-09T13:36:10.217Z,100568.50
2022-09-09T13:38:58.324Z,100576.06
2022-09-09T13:41:31.394Z,100576.31
2022-09-09T13:43:58.536Z,100577.63
2022-09-09T13:46:31.129Z,100568.59
2022-09-09T13:48:59.795Z,100566.81
2022-09-09T13:51:36.058Z,100575.19
2022-09-09T13:54:02.827Z,100577.06
2022-09-09T13:56:30.062Z,100579.38
2022-09-09T13:58:56.763Z,100583.75
2022-09-09T14:01:28.884Z,100580.97
2022-09-09T14:03:56.548Z,100585.63
2022-09-09T14:06:24.037Z,100571.88
2022-09-09T14:08:51.751Z,100577.19
2022-09-09T14:11:19.528Z,100586.84
2022-09-09T14:13:46.234Z,100589.81
2022-09-09T14:16:13.019Z,100569.81
2022-09-09T14:18:40.046Z,100583.41
2022-09-09T14:21:06.940Z,100574.63
2022-09-09T14:23:33.685Z,100566.06
2022-09-09T14:26:00.382Z,100572.59
2022-09-09T14:28:51.921Z,100581.44
2022-09-09T14:31:14.682Z,100576.03
2022-09-09T14:33:41.752Z,100570.81
2022-09-09T14:36:08.504Z,100573.91
2022-09-09T14:38:40.702Z,100573.91
2022-09-09T14:41:10.185Z,100570.25
2022-09-09T14:43:38.945Z,100575.78
2022-09-09T14:46:07.831Z,100581.59
2022-09-09T14:48:35.030Z,100574.63
2022-09-09T14:51:09.052Z,100576.50
2022-09-09T14:53:35.912Z,100581.16
2022-09-09T14:56:32.996Z,100583.09
2022-09-09T14:59:01.801Z,100572.09
2022-09-09T15:01:30.446Z,100567.72
2022-09-09T15:03:59.848Z,100576.53
2022-09-09T15:06:30.187Z,100578.75
2022-09-09T15:08:58.823Z,100576.97
2022-09-09T15:11:28.933Z,100584.03
2022-09-09T15:13:56.062Z,100579.56
2022-09-09T15:16:24.940Z,100569.22
2022-09-09T15:18:55.232Z,100571.81
2022-09-09T15:21:24.955Z,100581.78
2022-09-09T15:23:52.267Z,100578.69
2022-09-09T15:26:19.765Z,100583.31
2022-09-09T15:28:48.349Z,100584.28
2022-09-09T15:31:26.293Z,100586.94
2022-09-09T15:34:01.745Z,100583.63
2022-09-09T15:36:37.129Z,100582.78
2022-09-09T15:39:06.541Z,100579.22
2022-09-09T15:41:34.138Z,100581.53
2022-09-09T15:44:01.786Z,100584.91
2022-09-09T15:46:34.060Z,100589.19
2022-09-09T15:49:14.832Z,100590.88
2022-09-09T15:52:04.420Z,100594.88
2022-09-09T15:54:35.917Z,100594.09
2022-09-09T15:57:03.909Z,100595.00
2022-09-09T15:59:32.188Z,100600.25
2022-09-09T16:02:01.085Z,100600.59
2022-09-09T16:04:29.986Z,100605.31
2022-09-09T16:07:02.882Z,100607.00
2022-09-09T16:09:30.646Z,100608.69
2022-09-09T16:11:59.935Z,100604.81
2022-09-09T16:14:26.855Z,100602.97
2022-09-09T16:16:53.765Z,100600.59
2022-09-09T16:19:20.846Z,100608.69
2022-09-09T16:21:49.486Z,100610.72
2022-09-09T16:24:21.771Z,100611.91
2022-09-09T16:26:50.624Z,100607.41
2022-09-09T16:29:18.385Z,100606.00
2022-09-09T16:31:47.675Z,100609.59
2022-09-09T16:34:15.786Z,100617.13
2022-09-09T16:36:44.064Z,100622.69
2022-09-09T16:39:13.719Z,100613.78
2022-09-09T16:41:42.248Z,100622.84
2022-09-09T16:44:12.387Z,100615.81
2022-09-09T16:46:42.522Z,100621.19
2022-09-09T16:49:11.935Z,100622.38
2022-09-09T16:51:48.057Z,100632.34
2022-09-09T16:54:16.334Z,100618.34
2022-09-09T16:56:45.081Z,100622.31
2022-09-09T16:59:17.067Z,100620.13
2022-09-09T17:01:45.923Z,100618.63
2022-09-09T17:04:21.353Z,100626.69
2022-09-09T17:06:52.629Z,100633.94
2022-09-09T17:09:19.707Z,100631.94
2022-09-09T17:11:48.295Z,100635.63
2022-09-09T17:14:18.192Z,100640.72
2022-09-09T17:16:45.693Z,100638.31
2022-09-09T17:19:13.225Z,100642.56
2022-09-09T17:21:59.985Z,100640.41
2022-09-09T17:24:29.910Z,100636.06
2022-09-09T17:26:56.811Z,100648.34
2022-09-09T17:29:23.577Z,100643.16
2022-09-09T17:31:50.222Z,100645.03
2022-09-09T17:34:16.999Z,100651.78
2022-09-09T17:36:43.816Z,100650.28
2022-09-09T17:39:10.647Z,100647.91
2022-09-09T17:41:40.249Z,100652.31
2022-09-09T17:46:42.563Z,100640.53
2022-09-09T17:49:18.412Z,100648.09
2022-09-09T17:51:46.135Z,100649.78
2022-09-09T17:54:19.292Z,100649.78
2022-09-09T17:56:47.121Z,100652.47
2022-09-09T17:59:15.839Z,100661.22
2022-09-09T18:01:45.509Z,100653.31
2022-09-09T18:04:15.056Z,100658.69
2022-09-09T18:06:45.110Z,100649.78
2022-09-09T18:09:15.627Z,100659.34
2022-09-09T18:11:48.209Z,100662.41
2022-09-09T18:14:18.186Z,100667.59
2022-09-09T18:16:45.525Z,100666.09
2022-09-09T18:19:14.370Z,100676.34
2022-09-09T18:21:42.776Z,100673.19
2022-09-09T18:24:11.685Z,100669.66
2022-09-09T18:26:40.001Z,100676.56
2022-09-09T18:29:10.363Z,100676.56
2022-09-09T18:31:37.857Z,100677.72
2022-09-09T18:34:07.683Z,100680.59
2022-09-09T18:36:40.544Z,100688.00
2022-09-09T18:39:08.154Z,100683.78
2022-09-09T18:41:40.385Z,100693.38
2022-09-09T18:44:12.185Z,100697.59
2022-09-09T18:46:39.911Z,100691.38
2022-09-09T18:49:07.488Z,100697.06
2022-09-09T18:51:37.045Z,100695.06
2022-09-09T18:54:09.398Z,100696.25
2022-09-09T18:56:36.698Z,100697.59
2022-09-09T18:59:06.578Z,100704.81
2022-09-09T19:01:35.709Z,100712.91
2022-09-09T19:04:04.196Z,100707.53
2022-09-09T19:06:32.542Z,100704.66
2022-09-09T19:09:03.116Z,100714.94
2022-09-09T19:11:31.224Z,100713.41
2022-09-09T19:14:04.054Z,100725.84
2022-09-09T19:16:33.840Z,100722.84
2022-09-09T19:19:14.094Z,100721.50
2022-09-09T19:21:42.138Z,100733.41
2022-09-09T19:24:20.430Z,100726.53
2022-09-09T19:26:50.456Z,100730.41
2022-09-09T19:29:20.973Z,100733.44
2022-09-09T19:32:18.695Z,100732.25
2022-09-09T19:34:36.448Z,100732.41
2022-09-09T19:37:03.226Z,100735.09
2022-09-09T19:39:29.957Z,100743.19
2022-09-09T19:41:56.649Z,100743.03
2022-09-09T19:44:23.370Z,100738.66
2022-09-09T19:46:50.088Z,100750.25
2022-09-09T19:49:17.657Z,100748.72
2022-09-09T19:51:44.385Z,100747.56
2022-09-09T19:54:14.072Z,100746.72
2022-09-09T19:56:42.399Z,100749.56
2022-09-09T19:59:11.105Z,100741.84
2022-09-09T20:01:41.227Z,100740.00
2022-09-09T20:04:08.966Z,100751.41
2022-09-09T20:06:37.994Z,100746.03
2022-09-09T20:09:06.877Z,100750.22
2022-09-09T20:11:34.795Z,100743.84
2022-09-09T20:14:01.901Z,100747.50
2022-09-09T20:16:33.143Z,100748.88
2022-09-09T20:19:02.294Z,100750.56
2022-09-09T20:21:37.120Z,100750.38
2022-09-09T20:24:07.587Z,100750.53
2022-09-09T20:26:37.467Z,100756.72
2022-09-09T20:29:07.728Z,100754.72
2022-09-09T20:31:40.123Z,100753.06
2022-09-09T20:34:10.248Z,100762.78
2022-09-09T20:36:38.809Z,100757.19
2022-09-09T20:39:15.087Z,100761.03
2022-09-09T20:41:44.624Z,100761.22
2022-09-09T20:44:16.058Z,100759.88
2022-09-09T20:46:50.799Z,100761.22
2022-09-09T20:49:20.056Z,100764.75
2022-09-09T20:51:49.725Z,100763.69
2022-09-09T20:54:23.357Z,100766.38
2022-09-09T20:56:51.547Z,100767.94
2022-09-09T20:59:20.949Z,100772.59
2022-09-09T21:01:48.095Z,100765.84
2022-09-09T21:04:17.299Z,100771.25
2022-09-09T21:06:44.586Z,100766.84
2022-09-09T21:09:11.404Z,100775.28
2022-09-09T21:11:38.673Z,100770.88
2022-09-09T21:14:05.763Z,100776.59
2022-09-09T21:16:33.008Z,100770.53
2022-09-09T21:18:59.849Z,100761.47
2022-09-09T21:21:27.290Z,100771.72
2022-09-09T21:23:59.047Z,100773.38
2022-09-09T21:26:26.359Z,100784.28
2022-09-09T21:28:53.672Z,100780.28
2022-09-09T21:31:25.710Z,100775.84
2022-09-09T21:33:54.163Z,100772.16
2022-09-09T21:36:20.963Z,100782.53
2022-09-09T21:38:59.302Z,100773.31
2022-09-09T21:41:26.796Z,100779.84
2022-09-09T21:43:54.832Z,100782.88
2022-09-09T21:46:23.421Z,100782.38
2022-09-09T21:48:50.748Z,100790.59
2022-09-09T21:51:17.663Z,100783.84
2022-09-09T21:53:44.779Z,100791.28
2022-09-09T21:56:14.651Z,100787.34
2022-09-09T21:58:42.680Z,100789.56
2022-09-09T22:01:17.786Z,100790.19
2022-09-09T22:03:45.881Z,100791.34
2022-09-09T22:06:15.421Z,100787.44
2022-09-09T22:08:42.813Z,100798.00
2022-09-09T22:11:12.159Z,100790.06
2022-09-09T22:13:42.818Z,100791.09
2022-09-09T22:16:12.440Z,100791.25
2022-09-09T22:18:39.916Z,100787.38
2022-09-09T22:21:15.129Z,100788.63
2022-09-09T22:23:42.536Z,100793.28
2022-09-09T22:26:09.816Z,100790.91
2022-09-09T22:28:37.731Z,100790.91
2022-09-09T22:31:04.599Z,100792.38
2022-09-09T22:33:31.402Z,100801.53
2022-09-09T22:35:58.140Z,100806.28
2022-09-09T22:38:27.025Z,100804.09
2022-09-09T22:40:54.717Z,100806.56
2022-09-09T22:43:22.394Z,100806.56
2022-09-09T22:45:50.890Z,100806.50
2022-09-09T22:48:28.625Z,100806.69
2022-09-09T22:51:04.578Z,100800.84
2022-09-09T22:53:32.730Z,100800.28
2022-09-09T22:56:02.401Z,100800.03
2022-09-09T22:58:31.689Z,100802.84
2022-09-09T23:00:59.967Z,100800.75
2022-09-09T23:03:30.993Z,100803.03
2022-09-09T23:06:00.600Z,100803.94
2022-09-09T23:08:33.482Z,100806.47
2022-09-09T23:11:08.883Z,100808.16
2022-09-09T23:13:41.471Z,100812.13
2022-09-09T23:16:12.824Z,100812.31
2022-09-09T23:18:43.598Z,100816.66
2022-09-09T23:21:12.191Z,100809.22
2022-09-09T23:23:39.353Z,100819.59
2022-09-09T23:26:07.162Z,100814.38
2022-09-09T23:28:35.478Z,100820.19
2022-09-09T23:31:07.042Z,100814.28
2022-09-09T23:33:34.356Z,100817.13
2022-09-09T23:36:02.281Z,100822.78
2022-09-09T23:38:29.553Z,100832.53
2022-09-09T23:40:56.561Z,100831.84
2022-09-09T23:43:25.509Z,100830.44
2022-09-09T23:45:52.356Z,100830.91
2022-09-09T23:48:19.060Z,100838.38
2022-09-09T23:50:45.804Z,100835.72
2022-09-09T23:53:12.526Z,100825.97
2022-09-09T23:55:39.648Z,100837.38
2022-09-09T23:58:06.393Z,100833.03
